Time;durP1;ratioP1;P1;durP2;ratioP2;P2;SDS_P1;SDS_P2;PMS_P1;PMS_P2;Temp;Humidity;BMP_temperature;BMP_pressure;BME280_temperature;BME280_humidity;BME280_pressure;Samples;Min_cycle;Max_cycle;Signal;HPM_P1;HPM_P2
2023/01/16 01:46:47;;;;;;;;;;;3.00;99.90;;;;;;5001740;28;19932;-80
2023/01/16 01:49:19;;;;;;;;;;;3.00;99.90;;;;;;5013339;28;19934;-80
2023/01/16 01:51:47;;;;;;;;;;;3.00;99.90;;;;;;5006999;28;20169;-80
2023/01/16 01:54:19;;;;;;;;;;;3.00;99.90;;;;;;4986849;28;19929;-80
2023/01/16 01:56:47;;;;;;;;;;;3.00;99.90;;;;;;5011036;28;19925;-80
2023/01/16 01:59:17;;;;;;;;;;;3.00;99.90;;;;;;5012539;28;19989;-81
2023/01/16 02:01:44;;;;;;;;;;;3.00;99.90;;;;;;5006707;28;19937;-79
2023/01/16 02:04:14;;;;;;;;;;;3.00;99.90;;;;;;5008244;28;20419;-80
2023/01/16 02:06:43;;;;;;;;;;;3.00;99.90;;;;;;5013665;28;19989;-80
2023/01/16 02:09:11;;;;;;;;;;;3.00;99.90;;;;;;5003002;28;19927;-80
2023/01/16 02:11:45;;;;;;;;;;;3.00;99.90;;;;;;5016967;28;20355;-80
2023/01/16 02:14:14;;;;;;;;;;;3.00;99.90;;;;;;5006586;28;19949;-80
2023/01/16 02:19:32;;;;;;;;;;;3.00;99.90;;;;;;5006831;28;19986;-80
2023/01/16 02:22:18;;;;;;;;;;;3.00;99.90;;;;;;5007274;28;19926;-79
2023/01/16 02:24:58;;;;;;;;;;;3.00;99.90;;;;;;5008806;28;19960;-80
2023/01/16 02:27:42;;;;;;;;;;;2.90;99.90;;;;;;5001042;28;19933;-80
2023/01/16 02:30:15;;;;;;;;;;;2.90;99.90;;;;;;4960736;28;19961;-80
2023/01/16 02:32:53;;;;;;;;;;;3.00;99.90;;;;;;5004604;28;19929;-80
2023/01/16 02:35:35;;;;;;;;;;;2.90;99.90;;;;;;5007823;28;19926;-80
2023/01/16 02:38:11;;;;;;;;;;;2.90;99.90;;;;;;5006465;28;19957;-80
2023/01/16 02:40:44;;;;;;;;;;;2.90;99.90;;;;;;5003297;28;19925;-80
2023/01/16 02:43:16;;;;;;;;;;;2.90;99.90;;;;;;5000570;28;19926;-81
2023/01/16 02:45:44;;;;;;;;;;;2.90;99.90;;;;;;5004408;28;19929;-80
2023/01/16 02:48:14;;;;;;;;;;;2.90;99.90;;;;;;5006325;28;19932;-80
2023/01/16 02:50:47;;;;;;;;;;;2.90;99.90;;;;;;5004322;28;19937;-80
2023/01/16 02:53:17;;;;;;;;;;;2.90;99.90;;;;;;5007956;28;19949;-80
2023/01/16 02:55:46;;;;;;;;;;;2.90;99.90;;;;;;5013789;28;19932;-80
2023/01/16 02:58:14;;;;;;;;;;;2.90;99.90;;;;;;4991453;28;19926;-80
2023/01/16 03:00:49;;;;;;;;;;;2.90;99.90;;;;;;5006841;28;19933;-80
2023/01/16 03:03:26;;;;;;;;;;;2.90;99.90;;;;;;5009500;28;19933;-80
2023/01/16 03:05:58;;;;;;;;;;;2.90;99.90;;;;;;5008545;28;19926;-82
2023/01/16 03:08:29;;;;;;;;;;;2.80;99.90;;;;;;5008857;28;19934;-80
2023/01/16 03:11:10;;;;;;;;;;;2.80;99.90;;;;;;4990730;28;19926;-80
2023/01/16 03:13:44;;;;;;;;;;;2.80;99.90;;;;;;4996167;28;19930;-81
2023/01/16 03:16:15;;;;;;;;;;;2.80;99.90;;;;;;5008615;28;19934;-80
2023/01/16 03:18:54;;;;;;;;;;;2.80;99.90;;;;;;5010524;28;19925;-81
2023/01/16 04:09:43;;;;;;;;;;;2.70;99.90;;;;;;5359736;23;20000;-80
2023/01/16 04:12:12;;;;;;;;;;;2.70;99.90;;;;;;5059894;28;19925;-81
2023/01/16 04:14:40;;;;;;;;;;;2.70;99.90;;;;;;5062361;28;19925;-80
2023/01/16 04:17:07;;;;;;;;;;;2.70;99.90;;;;;;5058078;28;19925;-79
2023/01/16 04:19:36;;;;;;;;;;;2.70;99.90;;;;;;5053433;28;19929;-84
2023/01/16 04:22:06;;;;;;;;;;;2.70;99.90;;;;;;5057677;28;19932;-82
2023/01/16 04:24:33;;;;;;;;;;;2.70;99.90;;;;;;5065411;28;19929;-80
2023/01/16 04:27:03;;;;;;;;;;;2.70;99.90;;;;;;5040432;28;19936;-81
2023/01/16 04:29:32;;;;;;;;;;;2.70;99.90;;;;;;5040144;28;19932;-81
2023/01/16 04:32:00;;;;;;;;;;;2.70;99.90;;;;;;5058186;28;19932;-79
2023/01/16 04:34:27;;;;;;;;;;;2.60;99.90;;;;;;5060140;28;19929;-79
2023/01/16 04:36:54;;;;;;;;;;;2.60;99.90;;;;;;5048816;28;19967;-79
2023/01/16 04:39:21;;;;;;;;;;;2.60;99.90;;;;;;5060102;28;19948;-79
2023/01/16 04:41:51;;;;;;;;;;;2.60;99.90;;;;;;5058116;28;19996;-81
2023/01/16 04:44:20;;;;;;;;;;;2.60;99.90;;;;;;5042765;28;19932;-80
2023/01/16 04:46:47;;;;;;;;;;;2.60;99.90;;;;;;5060778;28;19925;-80
2023/01/16 04:49:14;;;;;;;;;;;2.60;99.90;;;;;;5061938;28;19928;-79
2023/01/16 04:51:42;;;;;;;;;;;2.60;99.90;;;;;;5047563;28;19925;-79
2023/01/16 04:54:14;;;;;;;;;;;2.60;99.90;;;;;;5062260;28;19939;-80
2023/01/16 04:56:41;;;;;;;;;;;2.60;99.90;;;;;;5057540;28;19952;-81
2023/01/16 04:59:09;;;;;;;;;;;2.50;99.90;;;;;;5068208;28;19940;-79
2023/01/16 05:01:37;;;;;;;;;;;2.50;99.90;;;;;;5061387;28;19925;-79
2023/01/16 05:04:05;;;;;;;;;;;2.50;99.90;;;;;;5046728;28;19959;-82
2023/01/16 05:06:32;;;;;;;;;;;2.50;99.90;;;;;;5043141;28;19924;-80
2023/01/16 05:09:00;;;;;;;;;;;2.50;99.90;;;;;;5048846;28;19924;-80
2023/01/16 05:11:27;;;;;;;;;;;2.50;99.90;;;;;;5060997;28;19949;-80
2023/01/16 05:13:54;;;;;;;;;;;2.50;99.90;;;;;;5044360;28;19971;-79
2023/01/16 05:16:22;;;;;;;;;;;2.50;99.90;;;;;;5064542;28;19929;-80
2023/01/16 05:18:50;;;;;;;;;;;2.50;99.90;;;;;;5061235;28;19925;-80
2023/01/16 05:21:17;;;;;;;;;;;2.50;99.90;;;;;;5063810;28;19924;-80
2023/01/16 05:23:44;;;;;;;;;;;2.50;99.90;;;;;;5064028;28;20404;-81
2023/01/16 05:26:12;;;;;;;;;;;2.50;99.90;;;;;;5061810;28;20031;-80
2023/01/16 05:28:39;;;;;;;;;;;2.50;99.90;;;;;;5059023;28;19972;-79
2023/01/16 05:31:07;;;;;;;;;;;2.50;99.90;;;;;;5052725;28;19972;-80
2023/01/16 05:33:35;;;;;;;;;;;2.50;99.90;;;;;;5066604;28;19943;-79
2023/01/16 05:36:06;;;;;;;;;;;2.50;99.90;;;;;;5074242;28;19909;-80
2023/01/16 05:38:35;;;;;;;;;;;2.50;99.90;;;;;;5071667;28;19929;-80
2023/01/16 05:41:08;;;;;;;;;;;2.40;99.90;;;;;;5046326;28;19929;-80
2023/01/16 05:43:40;;;;;;;;;;;2.40;99.90;;;;;;5071949;28;19909;-81
2023/01/16 05:46:08;;;;;;;;;;;2.40;99.90;;;;;;5027072;28;19948;-81
2023/01/16 05:48:37;;;;;;;;;;;2.40;99.90;;;;;;5061741;28;19971;-79
2023/01/16 05:51:06;;;;;;;;;;;2.40;99.90;;;;;;5055906;28;19929;-79
2023/01/16 05:53:33;;;;;;;;;;;2.40;99.90;;;;;;5036519;28;19925;-83
2023/01/16 05:56:08;;;;;;;;;;;2.40;99.90;;;;;;5043129;28;19925;-82
2023/01/16 05:58:38;;;;;;;;;;;2.40;99.90;;;;;;5033517;28;19956;-82
2023/01/16 06:01:06;;;;;;;;;;;2.40;99.90;;;;;;5087897;22;19925;-79
2023/01/16 06:03:35;;;;;;;;;;;2.40;99.90;;;;;;5139503;22;19925;-80
2023/01/16 06:06:02;;;;;;;;;;;2.40;99.90;;;;;;5142872;22;19925;-80
2023/01/16 06:08:32;;;;;;;;;;;2.40;99.90;;;;;;5045544;28;19928;-79
2023/01/16 06:11:01;;;;;;;;;;;2.40;99.90;;;;;;5045905;28;19948;-81
2023/01/16 06:13:34;;;;;;;;;;;2.40;99.90;;;;;;5050877;28;19933;-82
2023/01/16 06:18:43;;;;;;;;;;;2.40;99.90;;;;;;5086657;22;19928;-80
2023/01/16 06:21:12;;;;;;;;;;;2.30;99.90;;;;;;5082093;28;20428;-80
2023/01/16 06:26:25;;;;;;;;;;;2.30;99.90;;;;;;5077655;28;19941;-82
2023/01/16 06:28:52;;;;;;;;;;;2.30;99.90;;;;;;5093862;28;19970;-81
2023/01/16 06:31:19;;;;;;;;;;;2.30;99.90;;;;;;5101340;28;19936;-81
2023/01/16 06:33:46;;;;;;;;;;;2.30;99.90;;;;;;5073310;28;19925;-80
2023/01/16 06:36:14;;;;;;;;;;;2.30;99.90;;;;;;5080378;28;19943;-81
2023/01/16 06:38:43;;;;;;;;;;;2.30;99.90;;;;;;5090742;28;19932;-82
2023/01/16 06:52:13;;;;;;;;;;;2.20;99.90;;;;;;4998126;28;19923;-83
2023/01/16 06:55:13;;;;;;;;;;;2.30;99.90;;;;;;5091039;28;20329;-82
2023/01/16 06:57:42;;;;;;;;;;;2.30;99.90;;;;;;5084802;28;19932;-81
2023/01/16 07:03:25;;;;;;;;;;;2.30;99.90;;;;;;4998610;28;19980;-81
2023/01/16 07:05:55;;;;;;;;;;;2.30;99.90;;;;;;4978052;28;19940;-81
2023/01/16 07:08:22;;;;;;;;;;;2.20;99.90;;;;;;5080370;28;20214;-81
2023/01/16 07:25:22;;;;;;;;;;;2.20;99.90;;;;;;5024209;28;20049;-83
2023/01/16 07:27:51;;;;;;;;;;;2.20;99.90;;;;;;5008801;28;19925;-82
2023/01/16 07:30:19;;;;;;;;;;;2.20;99.90;;;;;;5006410;28;19929;-80
2023/01/16 07:32:46;;;;;;;;;;;2.20;99.90;;;;;;5080852;28;20539;-81
2023/01/16 07:35:14;;;;;;;;;;;2.20;99.90;;;;;;5090010;28;19936;-81
2023/01/16 07:48:11;;;;;;;;;;;2.20;99.90;;;;;;4994050;28;19994;-81
2023/01/16 08:01:09;;;;;;;;;;;2.10;99.90;;;;;;4972705;22;19955;-81
2023/01/16 08:04:00;;;;;;;;;;;2.20;99.90;;;;;;5065462;28;19924;-82
2023/01/16 08:12:52;;;;;;;;;;;2.10;99.90;;;;;;4890476;26;19913;-83
2023/01/16 08:15:21;;;;;;;;;;;2.20;99.90;;;;;;5073306;28;19987;-82
2023/01/16 08:17:49;;;;;;;;;;;2.20;99.90;;;;;;5072975;28;19929;-86
2023/01/16 08:20:17;;;;;;;;;;;2.20;99.90;;;;;;5068186;28;19932;-85
2023/01/16 08:22:48;;;;;;;;;;;2.10;99.90;;;;;;5073330;28;19908;-85
2023/01/16 08:25:18;;;;;;;;;;;2.10;99.90;;;;;;5053255;28;19939;-83
2023/01/16 08:27:45;;;;;;;;;;;2.20;99.90;;;;;;5068503;28;20004;-82
2023/01/16 08:30:16;;;;;;;;;;;2.20;99.90;;;;;;5047952;28;19932;-86
2023/01/16 08:32:47;;;;;;;;;;;2.20;99.90;;;;;;5071156;28;19955;-86
2023/01/16 08:35:14;;;;;;;;;;;2.20;99.90;;;;;;5054313;28;19945;-83
2023/01/16 08:37:49;;;;;;;;;;;2.10;99.90;;;;;;5053141;28;19909;-84
2023/01/16 08:40:16;;;;;;;;;;;2.10;99.90;;;;;;5069374;28;19925;-84
2023/01/16 08:53:45;;;;;;;;;;;2.20;99.90;;;;;;5073935;28;19929;-83
2023/01/16 08:56:15;;;;;;;;;;;2.20;99.90;;;;;;5073919;28;19912;-85
2023/01/16 08:58:43;;;;;;;;;;;2.20;99.90;;;;;;5072747;28;19917;-83
2023/01/16 09:01:15;;;;;;;;;;;2.20;99.90;;;;;;5072120;28;19975;-84
2023/01/16 09:03:45;;;;;;;;;;;2.10;99.90;;;;;;5072711;28;19935;-83
2023/01/16 09:06:16;;;;;;;;;;;2.20;99.90;;;;;;5056604;28;19925;-83
2023/01/16 09:08:47;;;;;;;;;;;2.20;99.90;;;;;;5076058;28;19929;-86
2023/01/16 09:14:02;;;;;;;;;;;2.20;99.90;;;;;;5058466;28;19959;-87
2023/01/16 09:16:32;;;;;;;;;;;2.10;99.90;;;;;;5073540;28;19955;-84
2023/01/16 09:19:06;;;;;;;;;;;2.20;99.90;;;;;;5076125;28;19924;-84
2023/01/16 09:21:39;;;;;;;;;;;2.20;99.90;;;;;;5077263;28;19925;-85
2023/01/16 09:24:10;;;;;;;;;;;2.20;99.90;;;;;;5073050;28;19913;-82
2023/01/16 09:26:39;;;;;;;;;;;2.20;99.90;;;;;;5079385;28;19931;-85
2023/01/16 09:29:08;;;;;;;;;;;2.20;99.90;;;;;;5073512;28;19920;-82
2023/01/16 09:31:40;;;;;;;;;;;2.20;99.90;;;;;;5074668;28;19929;-83
2023/01/16 09:34:14;;;;;;;;;;;2.20;99.90;;;;;;5074105;28;19950;-81
2023/01/16 09:36:45;;;;;;;;;;;2.10;99.90;;;;;;5057268;28;20004;-83
2023/01/16 09:39:15;;;;;;;;;;;2.20;99.90;;;;;;5079018;28;20418;-87
2023/01/16 09:44:49;;;;;;;;;;;2.20;99.90;;;;;;5072772;28;19940;-83
2023/01/16 09:47:22;;;;;;;;;;;2.20;99.90;;;;;;5074051;28;19952;-81
2023/01/16 09:49:54;;;;;;;;;;;2.20;99.90;;;;;;5078782;28;19980;-85
2023/01/16 10:00:50;;;;;;;;;;;2.20;99.90;;;;;;5072068;28;19956;-82
2023/01/16 10:03:21;;;;;;;;;;;2.20;99.90;;;;;;5054249;28;19932;-86
2023/01/16 10:05:59;;;;;;;;;;;2.20;99.90;;;;;;5055802;28;19909;-85
2023/01/16 10:08:31;;;;;;;;;;;2.20;99.90;;;;;;5074272;28;19933;-81
2023/01/16 10:11:13;;;;;;;;;;;2.20;99.90;;;;;;5076686;28;19976;-87
2023/01/16 10:14:00;;;;;;;;;;;2.20;99.90;;;;;;5073244;28;19927;-83
2023/01/16 10:16:41;;;;;;;;;;;2.20;99.90;;;;;;5060869;28;19968;-82
2023/01/16 10:19:16;;;;;;;;;;;2.20;99.90;;;;;;5058207;28;19924;-84
2023/01/16 10:21:59;;;;;;;;;;;2.20;99.90;;;;;;5061496;28;19920;-87
2023/01/16 10:24:34;;;;;;;;;;;2.20;99.90;;;;;;5057861;28;19933;-85
2023/01/16 10:27:21;;;;;;;;;;;2.20;99.90;;;;;;5072702;28;19939;-82
2023/01/16 10:35:38;;;;;;;;;;;2.20;99.90;;;;;;4700193;26;19961;-84
2023/01/16 10:49:49;;;;;;;;;;;2.20;99.90;;;;;;5051850;23;19925;-80
2023/01/16 10:52:16;;;;;;;;;;;2.20;99.90;;;;;;5056826;28;19928;-81
2023/01/16 10:54:45;;;;;;;;;;;2.20;99.90;;;;;;5057787;28;19935;-80
2023/01/16 10:57:15;;;;;;;;;;;2.20;99.90;;;;;;5048875;28;19956;-80
2023/01/16 10:59:43;;;;;;;;;;;2.20;99.90;;;;;;5027174;28;19925;-80
2023/01/16 11:02:17;;;;;;;;;;;2.20;99.90;;;;;;5020830;28;19932;-79
2023/01/16 11:04:45;;;;;;;;;;;2.20;99.90;;;;;;5018607;28;20031;-79
2023/01/16 11:07:16;;;;;;;;;;;2.20;99.90;;;;;;5019079;28;19929;-80
2023/01/16 11:09:46;;;;;;;;;;;2.20;99.90;;;;;;5026947;28;20279;-80
2023/01/16 11:20:45;;;;;;;;;;;2.30;99.90;;;;;;5016559;28;20460;-80
2023/01/16 11:23:17;;;;;;;;;;;2.30;99.90;;;;;;5026126;28;19964;-80
2023/01/16 11:25:46;;;;;;;;;;;2.30;99.90;;;;;;5038076;28;20023;-79
2023/01/16 11:28:18;;;;;;;;;;;2.30;99.90;;;;;;5022977;28;19924;-79
2023/01/16 11:30:47;;;;;;;;;;;2.30;99.90;;;;;;5054492;28;19925;-79
2023/01/16 11:33:16;;;;;;;;;;;2.30;99.90;;;;;;5023431;28;20383;-83
2023/01/16 11:35:45;;;;;;;;;;;2.30;99.90;;;;;;5049101;28;20007;-80
2023/01/16 11:38:14;;;;;;;;;;;2.30;99.90;;;;;;5023825;28;19932;-80
2023/01/16 11:40:46;;;;;;;;;;;2.30;99.90;;;;;;5042430;28;20027;-80
2023/01/16 11:46:07;;;;;;;;;;;2.30;99.90;;;;;;5026138;28;19929;-81
2023/01/16 11:48:37;;;;;;;;;;;2.30;99.90;;;;;;5036281;28;19947;-80
2023/01/16 11:51:04;;;;;;;;;;;2.30;99.90;;;;;;5048806;28;20392;-81
2023/01/16 11:53:36;;;;;;;;;;;2.30;99.90;;;;;;5045776;28;19933;-80
2023/01/16 11:56:12;;;;;;;;;;;2.30;99.90;;;;;;5034403;28;19928;-80
2023/01/16 11:58:44;;;;;;;;;;;2.30;99.90;;;;;;5045297;28;19949;-81
2023/01/16 12:01:15;;;;;;;;;;;2.30;99.90;;;;;;5024801;28;19929;-79
2023/01/16 12:03:59;;;;;;;;;;;2.30;99.90;;;;;;5043490;28;19955;-80
2023/01/16 12:06:35;;;;;;;;;;;2.30;99.90;;;;;;5047112;28;20039;-80
2023/01/16 12:09:11;;;;;;;;;;;2.30;99.90;;;;;;5036876;28;19924;-77
2023/01/16 12:14:17;;;;;;;;;;;2.30;99.90;;;;;;5029590;28;19935;-80
2023/01/16 12:14:58;;;;;;;;;;;2.30;99.90;;;;;;5043447;28;19939;-79
2023/01/16 12:17:32;;;;;;;;;;;2.40;99.90;;;;;;5041642;28;19928;-80
2023/01/16 12:20:06;;;;;;;;;;;2.40;99.90;;;;;;5028595;28;19932;-80
2023/01/16 12:22:44;;;;;;;;;;;2.40;99.90;;;;;;5046057;28;19990;-80
2023/01/16 12:25:19;;;;;;;;;;;2.30;99.90;;;;;;5041943;28;19940;-81
2023/01/16 12:27:52;;;;;;;;;;;2.30;99.90;;;;;;5043920;28;19931;-79
2023/01/16 12:30:24;;;;;;;;;;;2.30;99.90;;;;;;5045387;28;20724;-78
2023/01/16 12:32:57;;;;;;;;;;;2.40;99.90;;;;;;5043529;28;20484;-77
2023/01/16 12:35:28;;;;;;;;;;;2.40;99.90;;;;;;5044069;28;20318;-78
2023/01/16 12:38:04;;;;;;;;;;;2.40;99.90;;;;;;5044649;28;19974;-78
2023/01/16 12:40:38;;;;;;;;;;;2.40;99.90;;;;;;5037868;28;19925;-80
2023/01/16 12:43:22;;;;;;;;;;;2.40;99.90;;;;;;5041867;28;19932;-80
2023/01/16 12:45:52;;;;;;;;;;;2.40;99.90;;;;;;5044759;28;19964;-81
2023/01/16 12:48:37;;;;;;;;;;;2.40;99.90;;;;;;5029555;28;22710;-80
2023/01/16 12:51:14;;;;;;;;;;;2.40;99.90;;;;;;5046383;28;19990;-80
2023/01/16 12:54:00;;;;;;;;;;;2.40;99.90;;;;;;5043206;28;19976;-80
2023/01/16 12:56:33;;;;;;;;;;;2.40;99.90;;;;;;5042863;28;19929;-79
2023/01/16 12:59:03;;;;;;;;;;;2.40;99.90;;;;;;5040657;28;19925;-80
2023/01/16 13:01:34;;;;;;;;;;;2.40;99.90;;;;;;5041158;28;20345;-80
2023/01/16 13:04:06;;;;;;;;;;;2.40;99.90;;;;;;5045968;28;19975;-80
2023/01/16 13:06:37;;;;;;;;;;;2.40;99.90;;;;;;5045739;28;20326;-79
2023/01/16 13:09:09;;;;;;;;;;;2.40;99.90;;;;;;5049726;28;19925;-80
2023/01/16 13:14:26;;;;;;;;;;;2.40;99.90;;;;;;5043306;28;20024;-79
2023/01/16 13:16:59;;;;;;;;;;;2.40;99.90;;;;;;5040659;28;19928;-80
2023/01/16 13:19:27;;;;;;;;;;;2.40;99.90;;;;;;5044260;28;19970;-80
2023/01/16 13:21:58;;;;;;;;;;;2.40;99.90;;;;;;5046324;28;20017;-79
2023/01/16 13:24:30;;;;;;;;;;;2.40;99.90;;;;;;5034249;28;20383;-80
2023/01/16 13:26:58;;;;;;;;;;;2.40;99.90;;;;;;5039359;28;19928;-80
2023/01/16 13:29:30;;;;;;;;;;;2.40;99.90;;;;;;5047899;28;19935;-79
2023/01/16 13:31:59;;;;;;;;;;;2.40;99.90;;;;;;5039333;28;19956;-80
2023/01/16 13:34:32;;;;;;;;;;;2.40;99.90;;;;;;5045945;28;20042;-80
2023/01/16 13:37:18;;;;;;;;;;;2.50;99.90;;;;;;5029028;28;19956;-80
2023/01/16 13:39:59;;;;;;;;;;;2.50;99.90;;;;;;5044288;28;19929;-80
2023/01/16 13:42:27;;;;;;;;;;;2.50;99.90;;;;;;5047931;28;19940;-80
2023/01/16 13:47:49;;;;;;;;;;;2.50;99.90;;;;;;5026876;28;19925;-80
2023/01/16 13:50:21;;;;;;;;;;;2.50;99.90;;;;;;5027576;28;20496;-79
2023/01/16 13:52:48;;;;;;;;;;;2.50;99.90;;;;;;5044141;28;19925;-80
2023/01/16 13:55:21;;;;;;;;;;;2.50;99.90;;;;;;5050852;28;19931;-80
2023/01/16 13:57:48;;;;;;;;;;;2.50;99.90;;;;;;5046456;28;19939;-80
2023/01/16 14:00:19;;;;;;;;;;;2.50;99.90;;;;;;5042780;28;19913;-80
2023/01/16 14:03:02;;;;;;;;;;;2.50;99.90;;;;;;5040949;28;19944;-80
2023/01/16 14:05:43;;;;;;;;;;;2.50;99.90;;;;;;5045430;28;19929;-79
2023/01/16 14:11:28;;;;;;;;;;;2.60;99.90;;;;;;5006931;28;20019;-80
2023/01/16 14:14:14;;;;;;;;;;;2.60;99.90;;;;;;5037222;28;21713;-80
2023/01/16 14:16:41;;;;;;;;;;;2.60;99.90;;;;;;5034543;28;19929;-77
2023/01/16 14:19:23;;;;;;;;;;;2.60;99.90;;;;;;5014771;28;20904;-80
2023/01/16 14:24:00;;;;;;;;;;;2.60;99.90;;;;;;5015012;28;19929;-78
2023/01/16 14:24:51;;;;;;;;;;;2.70;99.90;;;;;;5030307;28;19925;-79
2023/01/16 14:27:19;;;;;;;;;;;2.70;99.90;;;;;;5041704;28;19940;-79
2023/01/16 14:29:51;;;;;;;;;;;2.70;99.90;;;;;;5037246;28;20363;-79
2023/01/16 14:32:21;;;;;;;;;;;2.70;99.90;;;;;;5040320;28;19952;-80
2023/01/16 14:34:50;;;;;;;;;;;2.70;99.90;;;;;;5021881;28;20013;-80
2023/01/16 14:37:18;;;;;;;;;;;2.70;99.90;;;;;;5045436;28;20476;-81
2023/01/16 14:59:08;;;;;;;;;;;2.70;99.90;;;;;;5048628;23;19933;-83
2023/01/16 15:02:30;;;;;;;;;;;;;;;;;;;;;
2023/01/16 15:05:25;;;;;;;;;;;2.70;99.90;;;;;;5451025;22;19924;-80
2023/01/16 15:07:56;;;;;;;;;;;2.70;99.90;;;;;;5028918;28;20934;-82
2023/01/16 15:10:28;;;;;;;;;;;2.80;99.90;;;;;;5007615;28;19929;-81
2023/01/16 15:13:12;;;;;;;;;;;2.80;99.90;;;;;;5019564;28;20322;-81
2023/01/16 15:15:43;;;;;;;;;;;2.80;99.90;;;;;;5020646;28;20352;-80
2023/01/16 15:23:40;;;;;;;;;;;2.80;99.90;;;;;;5002440;28;20383;-80
2023/01/16 15:26:25;;;;;;;;;;;2.80;99.90;;;;;;5014026;28;19929;-81
2023/01/16 15:29:01;;;;;;;;;;;2.80;99.90;;;;;;5022013;28;19933;-79
2023/01/16 15:31:30;;;;;;;;;;;2.80;99.90;;;;;;5020164;28;19933;-80
2023/01/16 15:34:01;;;;;;;;;;;2.80;99.90;;;;;;5012393;28;19929;-80
2023/01/16 15:36:32;;;;;;;;;;;2.70;99.90;;;;;;5021856;28;20338;-80
2023/01/16 15:39:04;;;;;;;;;;;2.80;99.90;;;;;;5027229;28;19940;-81
2023/01/16 15:47:13;;;;;;;;;;;2.80;99.90;;;;;;5026556;28;20400;-79
2023/01/16 15:49:45;;;;;;;;;;;2.80;99.90;;;;;;5020068;28;19947;-80
2023/01/16 15:58:14;;;;;;;;;;;2.80;99.90;;;;;;5022943;28;19924;-78
2023/01/16 16:00:43;;;;;;;;;;;2.80;99.90;;;;;;5001731;28;20469;-79
2023/01/16 16:03:16;;;;;;;;;;;2.80;99.90;;;;;;5004728;28;19931;-78
2023/01/16 16:05:45;;;;;;;;;;;2.80;99.90;;;;;;5006678;28;20145;-78
2023/01/16 16:08:15;;;;;;;;;;;2.80;99.90;;;;;;5022369;28;19952;-81
2023/01/16 16:13:35;;;;;;;;;;;2.80;99.90;;;;;;5012487;28;19933;-77
2023/01/16 16:19:00;;;;;;;;;;;2.80;99.90;;;;;;5008240;28;19933;-80
2023/01/16 16:21:29;;;;;;;;;;;2.80;99.90;;;;;;5024244;28;20863;-78
2023/01/16 16:24:01;;;;;;;;;;;2.80;99.90;;;;;;5024674;28;19929;-79
2023/01/16 16:26:29;;;;;;;;;;;2.80;99.90;;;;;;5011065;28;19976;-79
2023/01/16 16:28:59;;;;;;;;;;;2.80;99.90;;;;;;5028301;28;19925;-79
2023/01/16 16:31:33;;;;;;;;;;;2.80;99.90;;;;;;5026059;28;20394;-79
2023/01/16 16:34:02;;;;;;;;;;;2.80;99.90;;;;;;5021525;28;20582;-78
2023/01/16 16:36:29;;;;;;;;;;;2.80;99.90;;;;;;5004394;28;19933;-77
2023/01/16 16:38:59;;;;;;;;;;;2.80;99.90;;;;;;5022533;28;19933;-78
2023/01/16 16:44:32;;;;;;;;;;;2.80;99.90;;;;;;5019219;28;19936;-79
2023/01/16 16:47:01;;;;;;;;;;;2.80;99.90;;;;;;5022811;28;19929;-79
2023/01/16 16:49:29;;;;;;;;;;;2.80;99.90;;;;;;5022536;28;19988;-77
2023/01/16 16:51:59;;;;;;;;;;;2.80;99.90;;;;;;5024444;28;20016;-77
2023/01/16 16:54:29;;;;;;;;;;;2.80;99.90;;;;;;5023062;28;20298;-79
2023/01/16 16:56:59;;;;;;;;;;;2.80;99.90;;;;;;5018676;28;19935;-78
2023/01/16 16:59:26;;;;;;;;;;;2.80;99.90;;;;;;5030150;28;19933;-78
2023/01/16 17:01:55;;;;;;;;;;;2.80;99.90;;;;;;5012806;28;20013;-79
2023/01/16 17:04:37;;;;;;;;;;;2.80;99.90;;;;;;5027401;28;19933;-78
2023/01/16 17:07:06;;;;;;;;;;;2.80;99.90;;;;;;5026021;28;19932;-78
2023/01/16 17:09:35;;;;;;;;;;;2.80;99.90;;;;;;5011237;28;19932;-79
2023/01/16 17:12:13;;;;;;;;;;;2.80;99.90;;;;;;5011223;28;19925;-80
2023/01/16 17:14:42;;;;;;;;;;;2.80;99.90;;;;;;5030962;28;19935;-79
2023/01/16 17:17:11;;;;;;;;;;;2.80;99.90;;;;;;5028808;28;19996;-80
2023/01/16 17:19:38;;;;;;;;;;;2.90;99.90;;;;;;5036361;28;20330;-79
2023/01/16 17:22:09;;;;;;;;;;;2.90;99.90;;;;;;5038857;28;19988;-80
2023/01/16 17:24:36;;;;;;;;;;;2.80;99.90;;;;;;5423775;22;19924;-80
2023/01/16 17:27:15;;;;;;;;;;;2.80;99.90;;;;;;5087940;28;19993;-81
2023/01/16 17:29:43;;;;;;;;;;;2.80;99.90;;;;;;5082356;28;19933;-81
2023/01/16 17:32:43;;;;;;;;;;;2.80;99.90;;;;;;5079718;28;19935;-81
2023/01/16 17:51:12;;;;;;;;;;;2.90;99.90;;;;;;5050133;28;20399;-80
2023/01/16 17:53:57;;;;;;;;;;;2.80;99.90;;;;;;5050032;28;19941;-80
2023/01/16 17:56:25;;;;;;;;;;;2.80;99.90;;;;;;5049307;28;20287;-79
2023/01/16 17:58:57;;;;;;;;;;;2.90;99.90;;;;;;5045982;28;19967;-79
2023/01/16 18:01:35;;;;;;;;;;;2.90;99.90;;;;;;5050043;28;19925;-81
2023/01/16 18:04:09;;;;;;;;;;;2.90;99.90;;;;;;5046036;28;19933;-80
2023/01/16 18:06:38;;;;;;;;;;;2.90;99.90;;;;;;5044565;28;20047;-81
2023/01/16 18:09:07;;;;;;;;;;;2.90;99.90;;;;;;5052277;28;19952;-81
2023/01/16 18:17:23;;;;;;;;;;;2.90;99.90;;;;;;5045796;28;21847;-80
2023/01/16 18:19:51;;;;;;;;;;;2.90;99.90;;;;;;5051216;28;19928;-80
2023/01/16 18:22:17;;;;;;;;;;;2.90;99.90;;;;;;5040126;28;20294;-79
2023/01/16 18:24:44;;;;;;;;;;;2.90;99.90;;;;;;5053323;28;19932;-80
2023/01/16 18:27:13;;;;;;;;;;;2.90;99.90;;;;;;5043840;28;20299;-80
2023/01/16 18:29:40;;;;;;;;;;;2.90;99.90;;;;;;5046248;28;20394;-80
2023/01/16 18:32:22;;;;;;;;;;;2.90;99.90;;;;;;5047055;28;19972;-80
2023/01/16 18:34:53;;;;;;;;;;;2.90;99.90;;;;;;5044208;28;19948;-80
2023/01/16 18:37:20;;;;;;;;;;;2.90;99.90;;;;;;5052443;28;20386;-79
2023/01/16 19:05:35;;;;;;;;;;;2.90;99.90;;;;;;5039096;28;19994;-82
2023/01/16 19:13:42;;;;;;;;;;;2.90;99.90;;;;;;5013127;28;20423;-81
2023/01/16 19:19:30;;;;;;;;;;;2.90;99.90;;;;;;5869207;23;19933;-82
2023/01/16 19:22:02;;;;;;;;;;;2.90;99.90;;;;;;5066224;28;20291;-81
2023/01/16 19:24:36;;;;;;;;;;;2.90;99.90;;;;;;5052924;28;20386;-81
2023/01/16 19:30:28;;;;;;;;;;;2.90;99.90;;;;;;5056065;28;19925;-82
2023/01/16 19:33:02;;;;;;;;;;;2.90;99.90;;;;;;5039472;28;19924;-82
2023/01/16 19:38:12;;;;;;;;;;;2.90;99.90;;;;;;5051535;28;19947;-80
2023/01/16 19:46:41;;;;;;;;;;;2.90;99.90;;;;;;5050294;28;20391;-81
2023/01/16 19:47:01;;;;;;;;;;;2.90;99.90;;;;;;5043739;28;20309;-81
2023/01/16 19:49:41;;;;;;;;;;;2.90;99.90;;;;;;5061663;28;20228;-82
2023/01/16 19:52:21;;;;;;;;;;;2.90;99.90;;;;;;5048955;28;20011;-82
2023/01/16 19:54:56;;;;;;;;;;;2.80;99.90;;;;;;5037955;28;20334;-81
2023/01/16 19:57:27;;;;;;;;;;;2.90;99.90;;;;;;5048838;28;19996;-82
2023/01/16 20:00:00;;;;;;;;;;;2.90;99.90;;;;;;5038306;28;19933;-82
2023/01/16 20:02:52;;;;;;;;;;;2.80;99.90;;;;;;5047061;28;19931;-81
2023/01/16 20:05:29;;;;;;;;;;;2.80;99.90;;;;;;5031094;28;19998;-82
2023/01/16 20:08:08;;;;;;;;;;;2.80;99.90;;;;;;5051128;28;19964;-81
2023/01/16 20:13:52;;;;;;;;;;;2.90;99.90;;;;;;5027284;28;19925;-82
2023/01/16 20:19:13;;;;;;;;;;;2.90;99.90;;;;;;5026258;28;20461;-82
2023/01/16 20:21:45;;;;;;;;;;;2.90;99.90;;;;;;5049587;28;19975;-81
2023/01/16 20:24:20;;;;;;;;;;;2.90;99.90;;;;;;5050285;28;19935;-80
2023/01/16 20:27:05;;;;;;;;;;;2.90;99.90;;;;;;5050232;28;20015;-81
2023/01/16 20:32:46;;;;;;;;;;;2.80;99.90;;;;;;5027576;28;19933;-81
2023/01/16 20:38:37;;;;;;;;;;;2.80;99.90;;;;;;5044691;28;20401;-81
2023/01/16 20:56:04;;;;;;;;;;;2.90;99.90;;;;;;5050874;28;19940;-81
2023/01/16 20:58:34;;;;;;;;;;;2.90;99.90;;;;;;5055451;28;19929;-83
2023/01/16 21:01:13;;;;;;;;;;;2.90;99.90;;;;;;5055834;28;19951;-81
2023/01/16 21:04:01;;;;;;;;;;;2.90;99.90;;;;;;5041793;28;19925;-81
2023/01/16 21:06:49;;;;;;;;;;;2.90;99.90;;;;;;5056391;28;19955;-82
2023/01/16 21:09:33;;;;;;;;;;;2.90;99.90;;;;;;5053576;28;19928;-81
2023/01/16 21:15:07;;;;;;;;;;;2.90;99.90;;;;;;5057405;28;19964;-81
2023/01/16 21:23:23;;;;;;;;;;;2.80;99.90;;;;;;5052981;28;19964;-81
2023/01/16 21:26:07;;;;;;;;;;;2.90;99.90;;;;;;5054119;28;20023;-81
2023/01/16 21:28:51;;;;;;;;;;;2.80;99.90;;;;;;5040325;28;19928;-81
2023/01/16 21:31:39;;;;;;;;;;;2.80;99.90;;;;;;5061716;28;19924;-81
2023/01/16 21:47:54;;;;;;;;;;;2.80;99.90;;;;;;5014514;28;20518;-81
2023/01/16 21:51:27;;;;;;;;;;;2.80;99.90;;;;;;5043432;28;19928;-81
2023/01/16 22:37:51;;;;;;;;;;;2.80;99.90;;;;;;5001041;28;19926;-82
2023/01/16 22:49:22;;;;;;;;;;;2.70;99.90;;;;;;4973220;28;20012;-82
2023/01/16 23:07:17;;;;;;;;;;;2.70;99.90;;;;;;4984949;28;19925;-82
2023/01/16 23:12:58;;;;;;;;;;;2.70;99.90;;;;;;4996928;28;19933;-81
2023/01/16 23:15:39;;;;;;;;;;;2.70;99.90;;;;;;4997765;28;19941;-80
2023/01/16 23:18:31;;;;;;;;;;;2.70;99.90;;;;;;4987440;28;19960;-81
2023/01/16 23:24:19;;;;;;;;;;;2.60;99.90;;;;;;4992253;28;19921;-82
2023/01/16 23:33:17;;;;;;;;;;;2.60;99.90;;;;;;4996328;28;19921;-82
2023/01/16 23:55:30;;;;;;;;;;;2.60;99.90;;;;;;5001242;28;19925;-82
